Time;durP1;ratioP1;P1;durP2;ratioP2;P2;SDS_P1;SDS_P2;PMS_P1;PMS_P2;Temp;Humidity;BMP_temperature;BMP_pressure;BME280_temperature;BME280_humidity;BME280_pressure;Samples;Min_cycle;Max_cycle;Signal;HPM_P1;HPM_P2
2021/10/17 00:00:25;;;;;;;15.82;8.48;;;;;;;5.11;74.11;100805.97;5033611;28;20062;-59
2021/10/17 00:02:53;;;;;;;15.98;8.18;;;;;;;5.09;74.43;100805.41;5034263;28;20057;-59
2021/10/17 00:05:22;;;;;;;17.98;8.77;;;;;;;5.08;74.12;100812.88;5033369;28;20049;-59
2021/10/17 00:07:50;;;;;;;16.67;9.07;;;;;;;5.13;74.18;100814.81;5029500;28;20053;-59
2021/10/17 00:10:20;;;;;;;18.90;9.95;;;;;;;5.12;73.96;100815.91;5019878;28;20054;-59
2021/10/17 00:12:49;;;;;;;14.85;9.00;;;;;;;5.15;73.89;100820.06;5030803;28;20057;-59
2021/10/17 00:15:19;;;;;;;23.55;9.60;;;;;;;5.17;73.77;100824.22;5034823;28;20057;-60
2021/10/17 00:17:50;;;;;;;18.58;9.88;;;;;;;5.20;73.74;100822.84;5027709;28;20057;-60
2021/10/17 00:20:20;;;;;;;18.40;9.57;;;;;;;5.21;73.25;100830.03;5025421;28;20060;-58
2021/10/17 00:22:48;;;;;;;16.77;8.98;;;;;;;5.16;73.74;100830.81;5035026;28;20049;-59
2021/10/17 00:25:16;;;;;;;16.08;9.07;;;;;;;5.16;73.76;100825.31;5032607;28;20510;-59
2021/10/17 00:27:46;;;;;;;16.42;8.98;;;;;;;5.15;74.07;100828.34;5033218;28;20061;-58
2021/10/17 00:30:15;;;;;;;18.63;8.98;;;;;;;5.18;74.17;100820.34;5033072;28;20053;-59
2021/10/17 00:32:43;;;;;;;15.13;8.55;;;;;;;5.04;74.91;100820.03;5026217;28;20057;-59
2021/10/17 00:35:13;;;;;;;16.63;8.90;;;;;;;5.08;74.80;100825.81;5034446;28;20057;-59
2021/10/17 00:37:44;;;;;;;17.00;9.23;;;;;;;5.21;74.19;100825.34;5033432;28;20060;-59
2021/10/17 00:40:13;;;;;;;13.10;7.57;;;;;;;5.26;74.14;100832.81;5031411;28;20054;-58
2021/10/17 00:42:40;;;;;;;15.35;8.15;;;;;;;5.33;74.06;100821.50;5012779;28;20056;-58
2021/10/17 00:45:14;;;;;;;15.13;8.93;;;;;;;5.34;74.56;100829.53;5032821;28;20072;-58
2021/10/17 00:47:43;;;;;;;16.52;10.07;;;;;;;5.35;75.02;100830.34;5015633;28;20054;-59
2021/10/17 00:50:12;;;;;;;14.80;9.27;;;;;;;5.42;74.81;100826.25;5029746;28;21190;-59
2021/10/17 00:52:43;;;;;;;15.02;9.30;;;;;;;5.43;74.84;100827.88;5032366;28;20045;-59
2021/10/17 00:55:13;;;;;;;15.98;9.70;;;;;;;5.57;74.21;100830.16;5032047;28;20080;-59
2021/10/17 00:57:42;;;;;;;16.90;9.18;;;;;;;5.61;73.89;100834.88;5033791;28;20049;-59
2021/10/17 01:00:11;;;;;;;15.75;8.82;;;;;;;5.70;73.70;100833.22;5032603;28;20053;-59
2021/10/17 01:02:38;;;;;;;12.15;7.95;;;;;;;5.75;73.26;100829.63;5034316;28;20056;-59
2021/10/17 01:05:12;;;;;;;16.02;8.10;;;;;;;5.77;73.15;100830.19;5031112;28;20053;-59
2021/10/17 01:07:41;;;;;;;13.63;8.38;;;;;;;5.68;73.23;100818.84;5033082;28;20057;-59
2021/10/17 01:10:08;;;;;;;14.40;8.00;;;;;;;5.65;72.89;100813.88;5031380;28;20048;-58
2021/10/17 01:12:36;;;;;;;11.90;7.50;;;;;;;5.63;72.92;100821.59;5034257;28;20492;-58
2021/10/17 01:15:03;;;;;;;12.13;7.38;;;;;;;5.62;72.85;100814.41;5032480;28;20507;-59
2021/10/17 01:17:34;;;;;;;11.65;6.55;;;;;;;5.59;72.64;100817.72;5028176;28;20404;-59
2021/10/17 01:20:04;;;;;;;13.80;7.60;;;;;;;5.57;72.50;100808.88;5027151;28;20412;-58
2021/10/17 01:22:32;;;;;;;11.65;7.10;;;;;;;5.49;72.22;100810.22;5034065;28;20492;-58
2021/10/17 01:24:59;;;;;;;13.30;7.45;;;;;;;5.49;72.38;100814.94;5030340;28;20392;-58
2021/10/17 01:27:26;;;;;;;16.95;9.15;;;;;;;5.51;72.17;100811.91;5033192;28;20053;-59
2021/10/17 01:29:54;;;;;;;14.95;9.38;;;;;;;5.43;72.30;100811.31;5029087;28;20053;-59
2021/10/17 01:32:21;;;;;;;14.00;9.68;;;;;;;5.41;72.10;100812.69;5029754;28;20067;-59
2021/10/17 01:34:48;;;;;;;14.93;8.18;;;;;;;5.39;72.21;100807.44;5029116;28;20054;-59
2021/10/17 01:37:17;;;;;;;15.10;9.05;;;;;;;5.36;72.44;100807.16;5028687;28;20049;-58
2021/10/17 01:39:44;;;;;;;12.43;7.57;;;;;;;5.37;72.52;100814.34;5032304;28;20060;-59
2021/10/17 01:42:12;;;;;;;12.93;7.53;;;;;;;5.32;72.37;100806.06;5032048;28;20514;-59
2021/10/17 01:44:39;;;;;;;12.35;7.20;;;;;;;5.26;72.41;100808.78;5029021;28;20516;-58
2021/10/17 01:47:08;;;;;;;12.57;6.78;;;;;;;5.20;72.74;100809.03;5029582;28;20049;-58
2021/10/17 01:49:36;;;;;;;15.18;7.18;;;;;;;5.15;72.69;100801.56;5032171;28;20053;-59
2021/10/17 01:52:05;;;;;;;11.40;6.80;;;;;;;5.12;72.62;100804.84;5030260;28;20496;-58
2021/10/17 01:54:34;;;;;;;12.25;6.95;;;;;;;5.13;72.22;100800.19;5033506;28;20049;-58
2021/10/17 01:57:01;;;;;;;13.32;7.50;;;;;;;5.11;72.16;100800.44;5032191;28;20056;-59
2021/10/17 01:59:28;;;;;;;11.85;6.80;;;;;;;5.07;72.32;100800.16;5032012;28;20053;-59
2021/10/17 02:01:56;;;;;;;12.65;6.82;;;;;;;5.03;72.79;100800.97;5031825;28;20053;-58
2021/10/17 02:04:23;;;;;;;10.90;6.70;;;;;;;4.94;72.84;100797.88;5033599;28;20053;-59
2021/10/17 02:06:51;;;;;;;12.10;6.97;;;;;;;4.94;72.71;100794.31;5030789;28;20510;-58
2021/10/17 02:09:18;;;;;;;13.30;7.38;;;;;;;4.92;72.94;100788.22;5031674;28;20045;-58
2021/10/17 02:11:46;;;;;;;10.38;7.22;;;;;;;4.88;72.63;100783.22;5033015;28;20065;-59
2021/10/17 02:14:14;;;;;;;14.27;7.15;;;;;;;4.86;72.82;100787.34;5031515;28;20053;-58
2021/10/17 02:16:41;;;;;;;12.85;7.28;;;;;;;4.89;72.55;100784.03;5033188;28;20052;-58
2021/10/17 02:19:08;;;;;;;15.23;8.25;;;;;;;4.83;72.95;100783.22;5027513;28;20428;-58
2021/10/17 02:21:36;;;;;;;13.70;7.80;;;;;;;4.83;72.57;100783.22;5029877;28;20503;-58
2021/10/17 02:24:05;;;;;;;15.82;8.43;;;;;;;4.80;72.49;100780.16;5031255;28;20045;-58
2021/10/17 02:26:32;;;;;;;12.35;7.05;;;;;;;4.79;72.63;100776.56;5028448;28;20061;-58
2021/10/17 02:29:01;;;;;;;15.88;8.68;;;;;;;4.79;72.75;100779.31;5013060;28;20050;-59
2021/10/17 02:31:28;;;;;;;14.93;8.40;;;;;;;4.79;72.71;100782.09;5022365;28;20057;-59
2021/10/17 02:33:55;;;;;;;13.52;8.00;;;;;;;4.78;72.80;100776.81;5015722;28;20056;-58
2021/10/17 02:36:23;;;;;;;17.27;8.13;;;;;;;4.77;72.54;100776.00;5012746;28;20054;-59
2021/10/17 02:38:50;;;;;;;17.20;8.02;;;;;;;4.74;72.85;100775.69;5027357;28;20045;-58
2021/10/17 02:41:17;;;;;;;14.75;7.63;;;;;;;4.72;73.01;100777.91;5031733;28;20050;-58
2021/10/17 02:43:45;;;;;;;14.25;7.68;;;;;;;4.72;72.92;100777.91;5027631;28;20045;-59
2021/10/17 02:46:14;;;;;;;12.18;7.65;;;;;;;4.66;72.30;100779.78;5030803;28;20053;-59
2021/10/17 02:48:41;;;;;;;14.98;7.88;;;;;;;4.65;72.56;100783.66;5031309;28;20057;-59
2021/10/17 02:51:08;;;;;;;13.73;7.47;;;;;;;4.65;72.52;100775.38;5029311;28;20057;-59
2021/10/17 02:53:36;;;;;;;12.02;7.47;;;;;;;4.64;72.81;100769.03;5030505;28;20060;-58
2021/10/17 02:56:03;;;;;;;10.63;6.30;;;;;;;4.58;72.84;100769.28;5016146;28;20069;-58
2021/10/17 02:58:30;;;;;;;13.27;7.28;;;;;;;4.61;72.46;100761.28;5012518;28;20077;-58
2021/10/17 03:00:58;;;;;;;12.63;7.57;;;;;;;4.55;72.95;100767.03;5022864;28;20045;-58
2021/10/17 03:03:26;;;;;;;14.43;7.05;;;;;;;4.50;73.46;100770.59;5032214;28;20054;-58
2021/10/17 03:05:54;;;;;;;11.27;7.15;;;;;;;4.51;73.01;100765.91;5031137;28;20061;-58
2021/10/17 03:08:21;;;;;;;13.23;7.25;;;;;;;4.53;72.93;100763.72;5032035;28;20053;-59
2021/10/17 03:10:49;;;;;;;13.52;7.35;;;;;;;4.54;73.05;100765.41;5027833;28;20124;-59
2021/10/17 03:13:16;;;;;;;13.15;7.68;;;;;;;4.54;72.96;100759.88;5031237;28;20435;-58
2021/10/17 03:15:43;;;;;;;12.82;7.50;;;;;;;4.50;73.18;100754.06;5031973;28;20053;-59
2021/10/17 03:18:10;;;;;;;13.30;7.55;;;;;;;4.53;72.81;100756.25;5031355;28;20069;-59
2021/10/17 03:20:39;;;;;;;11.23;7.47;;;;;;;4.56;72.72;100752.16;5013981;28;20425;-59
2021/10/17 03:23:06;;;;;;;12.80;7.15;;;;;;;4.58;72.57;100748.03;5026989;28;20399;-58
2021/10/17 03:25:36;;;;;;;13.70;7.32;;;;;;;4.59;72.78;100748.84;5028109;28;20530;-57
2021/10/17 03:28:04;;;;;;;13.23;7.40;;;;;;;4.58;72.67;100749.97;5028641;28;20053;-59
2021/10/17 03:30:31;;;;;;;11.93;8.05;;;;;;;4.54;73.01;100748.84;5032014;28;20072;-58
2021/10/17 03:32:59;;;;;;;12.35;6.90;;;;;;;4.54;72.88;100746.91;5021374;28;20482;-58
2021/10/17 03:35:26;;;;;;;13.52;7.55;;;;;;;4.53;73.40;100747.16;5029061;28;20479;-57
2021/10/17 03:37:54;;;;;;;12.48;7.70;;;;;;;4.54;73.47;100751.59;5022046;28;20479;-59
2021/10/17 03:40:22;;;;;;;13.45;7.07;;;;;;;4.53;73.83;100744.41;5029427;28;20060;-58
2021/10/17 03:42:49;;;;;;;15.32;7.13;;;;;;;4.59;73.92;100746.09;5030628;28;20050;-58
2021/10/17 03:45:17;;;;;;;12.90;7.28;;;;;;;4.65;74.10;100750.53;5031913;28;20057;-58
2021/10/17 03:47:44;;;;;;;14.38;7.32;;;;;;;4.67;74.01;100738.13;5016718;28;20056;-58
2021/10/17 03:50:12;;;;;;;13.30;7.25;;;;;;;4.70;74.18;100749.75;5028811;28;20050;-59
2021/10/17 03:52:39;;;;;;;13.43;7.63;;;;;;;4.77;74.29;100748.41;5029567;28;20060;-59
2021/10/17 03:55:09;;;;;;;12.38;7.68;;;;;;;4.91;74.14;100750.66;5031571;28;20049;-58
2021/10/17 03:57:36;;;;;;;15.90;8.20;;;;;;;4.92;75.10;100761.44;5028943;28;20049;-59
2021/10/17 04:00:05;;;;;;;14.23;8.40;;;;;;;5.05;75.12;100762.88;5031942;28;20045;-59
2021/10/17 04:02:32;;;;;;;15.63;9.45;;;;;;;4.91;75.73;100757.00;5026969;28;20498;-58
2021/10/17 04:04:59;;;;;;;16.00;8.60;;;;;;;4.92;75.46;100757.84;5013799;28;20061;-58
2021/10/17 04:07:27;;;;;;;15.18;8.32;;;;;;;4.91;75.81;100751.47;5032765;28;20068;-58
2021/10/17 04:09:54;;;;;;;13.75;7.93;;;;;;;4.83;75.63;100750.09;5034898;28;20053;-59
2021/10/17 04:12:23;;;;;;;13.90;8.35;;;;;;;4.79;75.96;100739.88;5032074;28;20050;-58
2021/10/17 04:14:50;;;;;;;13.75;8.27;;;;;;;4.81;76.43;100743.19;5032171;28;20052;-59
2021/10/17 04:17:17;;;;;;;15.23;8.60;;;;;;;5.07;75.77;100755.97;5030537;28;20058;-59
2021/10/17 04:19:45;;;;;;;13.93;8.55;;;;;;;5.25;75.56;100751.06;5029646;28;20061;-59
2021/10/17 04:22:12;;;;;;;11.73;8.23;;;;;;;5.37;75.62;100750.81;5023514;28;20384;-59
2021/10/17 04:24:39;;;;;;;13.90;8.40;;;;;;;5.47;75.74;100739.78;5031864;28;20057;-59
2021/10/17 04:27:07;;;;;;;14.13;8.82;;;;;;;5.57;75.68;100745.31;5030577;28;20056;-59
2021/10/17 04:29:36;;;;;;;14.35;8.90;;;;;;;5.63;75.36;100733.19;5030122;28;20057;-59
2021/10/17 04:32:04;;;;;;;13.75;8.98;;;;;;;5.78;75.38;100728.78;5034411;28;20053;-58
2021/10/17 04:34:31;;;;;;;17.08;8.82;;;;;;;5.77;75.13;100729.84;5033635;28;20065;-58
2021/10/17 04:36:59;;;;;;;15.07;8.63;;;;;;;5.83;75.10;100726.00;5034623;28;20534;-58
2021/10/17 04:39:27;;;;;;;13.85;8.38;;;;;;;6.00;74.87;100731.28;5033556;28;20076;-58
2021/10/17 04:41:54;;;;;;;13.52;8.48;;;;;;;6.07;74.86;100724.34;5034629;28;20072;-59
2021/10/17 04:44:21;;;;;;;14.13;8.38;;;;;;;6.12;74.88;100731.81;5027412;28;20058;-58
2021/10/17 04:46:50;;;;;;;13.93;7.55;;;;;;;6.12;74.21;100722.69;5033124;28;20053;-59
2021/10/17 04:49:17;;;;;;;12.60;8.38;;;;;;;6.21;74.14;100715.47;5030030;28;20053;-58
2021/10/17 04:51:44;;;;;;;12.68;8.80;;;;;;;6.22;73.27;100714.38;5030043;28;20060;-58
2021/10/17 04:54:12;;;;;;;14.93;8.40;;;;;;;6.23;73.71;100718.78;5033522;28;20510;-58
2021/10/17 04:56:39;;;;;;;15.15;8.80;;;;;;;6.29;73.65;100701.91;5034058;28;20060;-58
2021/10/17 04:59:06;;;;;;;15.40;8.80;;;;;;;6.31;73.70;100709.94;5033769;28;20372;-59
2021/10/17 05:01:33;;;;;;;11.40;7.60;;;;;;;6.38;73.22;100704.09;5034005;28;20068;-57
2021/10/17 05:04:02;;;;;;;14.77;8.25;;;;;;;6.36;73.87;100729.28;5007814;28;20488;-59
2021/10/17 05:06:29;;;;;;;13.65;7.63;;;;;;;6.27;74.36;100744.78;5032284;28;20419;-58
2021/10/17 05:08:57;;;;;;;13.80;7.78;;;;;;;6.35;73.49;100747.00;5029547;28;20057;-59
2021/10/17 05:11:25;;;;;;;12.57;7.57;;;;;;;6.47;73.38;100738.41;5033834;28;20072;-57
2021/10/17 05:13:52;;;;;;;11.77;7.85;;;;;;;6.56;72.99;100745.00;5033086;28;20050;-58
2021/10/17 05:16:20;;;;;;;12.43;8.13;;;;;;;6.52;73.14;100748.63;5033664;28;20420;-59
2021/10/17 05:18:47;;;;;;;13.27;7.82;;;;;;;6.19;73.68;100751.72;5028097;28;20048;-57
2021/10/17 05:21:19;;;;;;;10.90;7.40;;;;;;;6.21;73.60;100749.50;5022040;28;20049;-59
2021/10/17 05:23:46;;;;;;;14.57;8.80;;;;;;;6.18;73.73;100743.72;5026845;28;20045;-59
2021/10/17 05:26:13;;;;;;;13.20;7.82;;;;;;;6.23;74.04;100749.22;5018487;28;20049;-58
2021/10/17 05:28:40;;;;;;;16.52;8.20;;;;;;;6.16;74.18;100745.94;5021753;28;20045;-59
2021/10/17 05:31:07;;;;;;;12.35;8.15;;;;;;;6.14;74.31;100750.91;5028533;28;20470;-59
2021/10/17 05:33:37;;;;;;;10.85;8.23;;;;;;;6.24;73.93;100748.13;5032566;28;20052;-59
2021/10/17 05:36:04;;;;;;;12.43;7.75;;;;;;;6.39;73.38;100745.34;5031393;28;20490;-58
2021/10/17 05:38:33;;;;;;;14.52;8.10;;;;;;;6.50;73.52;100749.72;5033635;28;20490;-59
2021/10/17 05:41:00;;;;;;;14.27;8.07;;;;;;;6.59;73.70;100754.69;5030752;28;20052;-58
2021/10/17 05:43:28;;;;;;;12.43;8.02;;;;;;;6.48;74.41;100756.66;5033454;28;20045;-58
2021/10/17 05:45:55;;;;;;;13.63;8.25;;;;;;;6.61;73.54;100758.81;5023730;28;20050;-59
2021/10/17 05:48:22;;;;;;;11.80;7.80;;;;;;;6.76;73.84;100770.97;5025972;28;20053;-58
2021/10/17 05:50:50;;;;;;;11.70;8.32;;;;;;;6.78;73.22;100764.03;5028680;28;20057;-58
2021/10/17 05:53:17;;;;;;;13.35;7.82;;;;;;;6.90;72.76;100758.19;5032209;28;20053;-59
2021/10/17 05:55:48;;;;;;;14.88;8.73;;;;;;;7.00;72.56;100757.31;5029297;28;20057;-59
2021/10/17 05:58:15;;;;;;;12.40;7.80;;;;;;;7.07;72.83;100772.50;5025157;28;20054;-58
2021/10/17 06:00:43;;;;;;;11.30;8.02;;;;;;;7.14;72.41;100775.00;5014780;28;20061;-59
2021/10/17 06:03:10;;;;;;;9.98;7.43;;;;;;;7.10;72.61;100780.28;5019423;28;20041;-58
2021/10/17 06:05:37;;;;;;;10.60;7.85;;;;;;;7.25;72.04;100776.59;5027629;28;20057;-59
2021/10/17 06:08:05;;;;;;;10.05;6.65;;;;;;;7.29;72.02;100777.69;5019105;28;20053;-58
2021/10/17 06:10:33;;;;;;;8.32;6.97;;;;;;;7.39;71.88;100778.72;5027750;28;20053;-59
2021/10/17 06:13:01;;;;;;;11.00;6.75;;;;;;;7.44;71.50;100774.00;5018409;28;20049;-59
2021/10/17 06:15:29;;;;;;;11.50;7.90;;;;;;;7.49;71.07;100773.13;5021230;28;20057;-59
2021/10/17 06:17:56;;;;;;;10.73;7.82;;;;;;;7.46;71.71;100768.19;5020323;28;20049;-58
2021/10/17 06:20:24;;;;;;;10.60;7.57;;;;;;;7.39;70.94;100773.19;5019720;28;20064;-58
2021/10/17 06:22:51;;;;;;;11.68;7.47;;;;;;;7.47;71.37;100780.91;5019597;28;20050;-59
2021/10/17 06:25:18;;;;;;;10.35;6.20;;;;;;;7.62;70.92;100788.28;5016548;28;20054;-58
2021/10/17 06:27:45;;;;;;;9.70;6.60;;;;;;;7.81;71.50;100780.13;5021472;28;20058;-56
2021/10/17 06:30:14;;;;;;;13.82;7.18;;;;;;;7.94;70.52;100776.72;5023951;28;20049;-58
2021/10/17 06:32:42;;;;;;;12.20;8.07;;;;;;;8.03;69.60;100782.47;5015474;28;20065;-59
2021/10/17 06:35:13;;;;;;;10.27;7.93;;;;;;;8.14;69.37;100784.84;5017439;28;20465;-58
2021/10/17 06:37:40;;;;;;;10.50;7.65;;;;;;;8.24;68.71;100788.69;5019288;28;20388;-59
2021/10/17 06:40:09;;;;;;;9.05;6.43;;;;;;;8.26;68.52;100792.81;5020256;28;20075;-58
2021/10/17 06:42:36;;;;;;;10.25;6.78;;;;;;;8.22;68.25;100791.75;5021005;28;20061;-59
2021/10/17 06:45:04;;;;;;;9.35;6.63;;;;;;;8.18;68.33;100793.44;5018084;28;20060;-58
2021/10/17 06:47:32;;;;;;;9.65;6.65;;;;;;;8.18;68.51;100790.66;5017989;28;20045;-59
2021/10/17 06:50:00;;;;;;;12.70;6.80;;;;;;;8.23;67.76;100782.31;5032189;28;20061;-59
2021/10/17 06:52:27;;;;;;;8.77;7.13;;;;;;;8.30;68.35;100805.00;5016882;28;20058;-59
2021/10/17 06:54:54;;;;;;;8.38;6.97;;;;;;;8.26;67.75;100794.75;5030586;28;20056;-59
2021/10/17 06:57:22;;;;;;;9.45;6.90;;;;;;;8.39;67.56;100799.63;5026382;28;20061;-59
2021/10/17 06:59:49;;;;;;;9.07;6.28;;;;;;;8.46;66.84;100791.84;5025004;28;20342;-57
2021/10/17 07:02:16;;;;;;;9.45;6.97;;;;;;;8.16;68.89;100798.44;5024501;28;20057;-44
2021/10/17 07:04:45;;;;;;;9.45;6.95;;;;;;;8.00;70.08;100794.13;5023530;28;20049;-45
2021/10/17 07:07:12;;;;;;;8.48;6.88;;;;;;;8.31;68.44;100798.31;5016364;28;21504;-58
2021/10/17 07:09:40;;;;;;;18.15;8.90;;;;;;;8.43;68.28;100808.25;5019020;28;20057;-59
2021/10/17 07:12:07;;;;;;;11.05;7.10;;;;;;;8.62;67.73;100803.59;5012830;28;20045;-58
2021/10/17 07:14:35;;;;;;;8.98;6.35;;;;;;;8.76;66.72;100803.75;5019642;28;20060;-59
2021/10/17 07:17:02;;;;;;;13.82;6.82;;;;;;;8.88;67.02;100806.97;5025407;28;20389;-58
2021/10/17 07:19:32;;;;;;;11.63;6.70;;;;;;;9.01;66.21;100804.56;5031181;28;20058;-58
2021/10/17 07:22:00;;;;;;;9.48;6.50;;;;;;;9.13;65.66;100804.97;5023927;28;20046;-58
2021/10/17 07:24:28;;;;;;;12.25;8.23;;;;;;;9.19;65.50;100820.47;5021811;28;20050;-58
2021/10/17 07:26:58;;;;;;;12.23;8.48;;;;;;;9.30;65.83;100815.63;5031660;28;20049;-58
2021/10/17 07:29:25;;;;;;;14.68;9.95;;;;;;;9.37;65.10;100818.88;5030681;28;20365;-58
2021/10/17 07:31:53;;;;;;;15.05;11.15;;;;;;;9.40;64.96;100820.22;5021844;28;20053;-58
2021/10/17 07:34:20;;;;;;;11.10;8.32;;;;;;;9.45;64.82;100822.91;5026152;28;20070;-58
2021/10/17 07:36:47;;;;;;;12.77;7.65;;;;;;;9.47;64.26;100815.97;5027237;28;20460;-58
2021/10/17 07:39:16;;;;;;;9.18;7.45;;;;;;;9.53;63.64;100819.47;5028572;28;20495;-58
2021/10/17 07:41:48;;;;;;;11.32;8.30;;;;;;;9.55;64.03;100823.63;5025815;28;20487;-58
2021/10/17 07:44:16;;;;;;;11.70;7.30;;;;;;;9.64;63.28;100821.00;5013604;28;20052;-58
2021/10/17 07:46:43;;;;;;;11.13;7.93;;;;;;;9.59;63.45;100818.28;5029817;28;20053;-58
2021/10/17 07:49:10;;;;;;;10.25;7.25;;;;;;;9.72;64.20;100822.28;5012966;28;20054;-58
2021/10/17 07:51:38;;;;;;;10.18;6.70;;;;;;;9.75;63.81;100828.06;5026035;28;20069;-58
2021/10/17 07:54:05;;;;;;;10.40;7.50;;;;;;;9.89;63.85;100821.75;4997991;28;20051;-58
2021/10/17 07:56:34;;;;;;;9.20;7.10;;;;;;;10.02;63.28;100832.13;5030689;28;20053;-58
2021/10/17 07:59:02;;;;;;;11.90;8.30;;;;;;;10.00;63.50;100826.06;5035463;28;20053;-58
2021/10/17 08:01:29;;;;;;;10.60;7.85;;;;;;;10.12;63.09;100823.63;5028130;28;20053;-58
2021/10/17 08:03:57;;;;;;;11.15;7.80;;;;;;;10.22;62.92;100822.63;5032153;28;20049;-58
2021/10/17 08:06:24;;;;;;;11.30;8.30;;;;;;;10.31;62.34;100818.06;5028270;28;20057;-58
2021/10/17 08:08:52;;;;;;;11.75;7.60;;;;;;;10.41;62.13;100817.03;5032765;28;20053;-58
2021/10/17 08:11:19;;;;;;;14.07;9.10;;;;;;;10.48;62.05;100823.06;5018705;28;20053;-58
2021/10/17 08:13:48;;;;;;;14.57;9.77;;;;;;;10.49;62.37;100821.91;5015532;28;20050;-58
2021/10/17 08:16:15;;;;;;;16.15;10.00;;;;;;;10.57;62.59;100821.22;5019458;28;20408;-58
2021/10/17 08:18:42;;;;;;;12.65;8.90;;;;;;;10.66;62.02;100828.88;5016656;28;20060;-58
2021/10/17 08:21:09;;;;;;;12.07;7.88;;;;;;;10.52;62.17;100815.75;5016743;28;20417;-58
2021/10/17 08:23:37;;;;;;;11.07;7.93;;;;;;;10.58;61.50;100816.47;5017626;28;20045;-59
2021/10/17 08:26:04;;;;;;;12.95;8.50;;;;;;;10.48;63.07;100820.28;5015565;28;20068;-59
2021/10/17 08:28:31;;;;;;;11.40;7.15;;;;;;;10.72;62.34;100817.31;5014840;28;20050;-59
2021/10/17 08:31:00;;;;;;;12.07;6.97;;;;;;;10.86;61.70;100820.16;5018847;28;20518;-59
2021/10/17 08:33:27;;;;;;;11.95;7.47;;;;;;;11.00;61.12;100817.34;5018322;28;20057;-59
2021/10/17 08:35:55;;;;;;;11.80;8.05;;;;;;;11.05;61.42;100817.28;5017304;28;20053;-59
2021/10/17 08:38:22;;;;;;;13.77;8.82;;;;;;;11.17;61.45;100823.16;5016237;28;20053;-59
2021/10/17 08:40:50;;;;;;;11.40;8.68;;;;;;;11.16;61.62;100826.25;5017328;28;20125;-59
2021/10/17 08:43:18;;;;;;;10.50;8.18;;;;;;;11.31;61.44;100830.69;5013829;28;20397;-59
2021/10/17 08:45:46;;;;;;;11.32;8.40;;;;;;;11.39;61.81;100835.53;5015350;28;20053;-58
2021/10/17 08:48:15;;;;;;;9.90;8.38;;;;;;;11.54;60.94;100843.56;5016879;28;20054;-59
2021/10/17 08:50:45;;;;;;;10.90;7.50;;;;;;;11.62;60.42;100844.81;5016430;28;20064;-59
2021/10/17 08:53:12;;;;;;;;;;;;;;;11.54;60.63;100834.38;5016508;28;20053;-59
2021/10/17 08:55:44;;;;;;;13.98;7.00;;;;;;;11.67;60.65;100843.88;5016751;28;20540;-59
2021/10/17 08:58:11;;;;;;;8.75;6.95;;;;;;;11.80;60.07;100834.66;5015071;28;20050;-59
2021/10/17 09:00:39;;;;;;;11.95;7.28;;;;;;;11.88;59.70;100835.88;5013198;28;20050;-59
2021/10/17 09:03:07;;;;;;;11.45;6.75;;;;;;;11.87;59.41;100834.22;5012946;28;20452;-59
2021/10/17 09:05:39;;;;;;;11.35;7.75;;;;;;;11.99;59.33;100837.34;5012665;28;21194;-58
2021/10/17 09:08:07;;;;;;;12.05;7.95;;;;;;;12.07;59.30;100839.34;5012463;28;20509;-59
2021/10/17 09:10:37;;;;;;;10.65;7.72;;;;;;;12.15;59.25;100838.59;5018128;28;20050;-59
2021/10/17 09:13:10;;;;;;;10.50;7.57;;;;;;;12.24;59.66;100829.47;5018460;28;20056;-59
2021/10/17 09:15:38;;;;;;;10.50;7.68;;;;;;;12.42;58.59;100827.63;5019743;28;20045;-59
2021/10/17 09:18:17;;;;;;;13.15;7.65;;;;;;;12.58;58.43;100820.50;5019624;28;20057;-59
2021/10/17 09:20:57;;;;;;;11.43;7.95;;;;;;;12.73;57.35;100822.06;5014668;28;20049;-59
2021/10/17 09:23:42;;;;;;;13.35;7.97;;;;;;;12.85;57.46;100815.88;5015089;28;20061;-59
2021/10/17 09:26:18;;;;;;;10.38;7.93;;;;;;;12.95;57.24;100813.63;5012978;28;20058;-59
2021/10/17 09:28:46;;;;;;;12.25;7.20;;;;;;;13.03;57.15;100812.00;5019519;28;20053;-59
2021/10/17 09:31:16;;;;;;;9.63;7.25;;;;;;;13.18;57.60;100810.75;5018611;28;20491;-59
2021/10/17 09:33:45;;;;;;;;;;;;;;;13.15;57.17;100822.59;5018872;28;20399;-59
2021/10/17 09:36:19;;;;;;;10.98;7.78;;;;;;;13.30;57.05;100813.78;5017575;28;19932;-59
2021/10/17 09:38:48;;;;;;;12.88;8.02;;;;;;;13.49;56.88;100810.72;5018451;28;20054;-60
2021/10/17 09:41:18;;;;;;;9.48;7.25;;;;;;;13.56;56.73;100813.84;5019768;28;20068;-59
2021/10/17 09:43:54;;;;;;;10.35;7.75;;;;;;;13.72;55.99;100811.41;5018090;28;20072;-59
2021/10/17 09:46:22;;;;;;;10.48;7.35;;;;;;;13.82;55.86;100815.88;5013656;28;20084;-58
2021/10/17 09:48:50;;;;;;;8.52;7.15;;;;;;;13.91;55.64;100813.88;5018815;28;20058;-59
2021/10/17 09:51:24;;;;;;;10.38;7.35;;;;;;;13.99;55.93;100812.25;5014725;28;20050;-59
2021/10/17 09:53:53;;;;;;;10.57;6.30;;;;;;;14.11;55.53;100812.41;5014492;28;20407;-58
2021/10/17 09:56:24;;;;;;;11.07;7.20;;;;;;;14.34;54.73;100801.00;5016704;28;20061;-60
2021/10/17 09:58:53;;;;;;;10.57;6.88;;;;;;;14.47;54.55;100805.63;5018757;28;20049;-59
2021/10/17 10:01:23;;;;;;;10.07;7.22;;;;;;;14.66;53.85;100799.66;5013982;28;20049;-59
2021/10/17 10:03:51;;;;;;;11.02;7.38;;;;;;;14.80;54.32;100796.66;5014322;28;20569;-60
2021/10/17 10:06:21;;;;;;;10.20;6.95;;;;;;;14.91;53.20;100800.75;5023443;28;20060;-60
2021/10/17 10:08:50;;;;;;;9.68;7.50;;;;;;;15.04;53.16;100800.88;5018963;28;20061;-60
2021/10/17 10:11:22;;;;;;;12.88;8.13;;;;;;;15.19;52.92;100803.09;5018873;28;20432;-60
2021/10/17 10:13:52;;;;;;;10.05;8.00;;;;;;;15.45;52.16;100796.50;5019362;28;20058;-59
2021/10/17 10:16:21;;;;;;;;;;;;;;;15.62;51.70;100799.19;5020191;28;20062;-58
2021/10/17 10:18:51;;;;;;;10.68;7.45;;;;;;;15.86;51.60;100789.34;5014998;28;20410;-60
2021/10/17 10:21:21;;;;;;;10.02;7.13;;;;;;;16.04;51.06;100793.63;5020721;28;20065;-58
2021/10/17 10:23:51;;;;;;;10.10;6.70;;;;;;;16.07;51.42;100792.13;5026115;28;20061;-59
2021/10/17 10:26:22;;;;;;;9.55;6.53;;;;;;;16.42;50.79;100799.06;5032526;28;20057;-58
2021/10/17 10:28:50;;;;;;;9.43;6.45;;;;;;;16.66;50.73;100791.06;5029890;28;20074;-59
2021/10/17 10:31:43;;;;;;;7.10;5.65;;;;;;;16.87;49.84;100791.81;5032553;28;20064;-58
2021/10/17 10:34:12;;;;;;;8.38;5.97;;;;;;;17.07;50.16;100798.50;5032252;28;20068;-58
2021/10/17 10:36:43;;;;;;;10.25;6.47;;;;;;;17.17;48.94;100798.06;5032861;28;20054;-58
2021/10/17 10:39:12;;;;;;;8.85;6.53;;;;;;;17.28;49.07;100798.41;5026199;28;20061;-58
2021/10/17 10:41:55;;;;;;;9.57;6.03;;;;;;;17.20;49.50;100793.75;5032702;28;20060;-58
2021/10/17 10:44:24;;;;;;;11.27;6.13;;;;;;;17.12;49.75;100800.31;5031551;28;20075;-58
2021/10/17 10:46:54;;;;;;;10.88;5.93;;;;;;;17.25;49.57;100799.13;5032735;28;20056;-58
2021/10/17 10:49:55;;;;;;;6.97;5.35;;;;;;;17.36;49.19;100807.91;5028306;28;20049;-58
2021/10/17 10:52:44;;;;;;;7.95;5.80;;;;;;;17.50;49.01;100805.56;4985289;28;20132;-58
2021/10/17 10:55:13;;;;;;;;;;;;;;;17.53;48.54;100801.22;4989002;28;20050;-59
2021/10/17 10:57:42;;;;;;;7.35;5.15;;;;;;;17.73;47.53;100786.16;5015446;28;20282;-58
2021/10/17 11:00:10;;;;;;;7.05;4.75;;;;;;;17.92;47.23;100787.56;5030853;28;20060;-58
2021/10/17 11:02:39;;;;;;;12.77;6.35;;;;;;;17.97;46.52;100781.66;5030939;28;20058;-57
2021/10/17 11:05:15;;;;;;;6.97;5.25;;;;;;;18.07;46.76;100781.16;5024367;28;20052;-58
2021/10/17 11:07:46;;;;;;;9.05;5.60;;;;;;;18.28;46.59;100783.78;5030972;28;20053;-58
2021/10/17 11:10:50;;;;;;;9.50;5.43;;;;;;;18.44;46.01;100778.19;5030785;28;20054;-58
2021/10/17 11:13:34;;;;;;;8.30;5.60;;;;;;;18.83;45.62;100781.25;5031312;28;20049;-58
2021/10/17 11:16:03;;;;;;;7.50;5.03;;;;;;;19.08;43.94;100766.97;5033857;28;20045;-58
2021/10/17 11:18:33;;;;;;;9.43;5.30;;;;;;;19.66;45.04;100764.31;5017825;28;20061;-59
2021/10/17 11:21:02;;;;;;;9.15;5.28;;;;;;;20.25;42.58;100768.84;5032779;28;20053;-58
2021/10/17 11:23:33;;;;;;;10.10;4.60;;;;;;;20.45;41.12;100765.97;5020268;28;20061;-58
2021/10/17 11:26:03;;;;;;;12.85;5.30;;;;;;;20.26;40.44;100770.50;5034783;28;20053;-59
2021/10/17 11:28:32;;;;;;;6.80;4.60;;;;;;;20.43;40.71;100762.69;5036135;28;20053;-59
2021/10/17 11:31:08;;;;;;;10.40;4.78;;;;;;;20.61;40.64;100758.22;5032831;28;20526;-59